sensor_id;sensor_type;location;lat;lon;timestamp;pressure;altitude;pressure_sealevel;temperature;humidity
3132;BME280;62090;52.330;9.104;2023-04-05T00:00:36;101889.84;;;2.74;72.89
3132;BME280;62090;52.330;9.104;2023-04-05T00:03:06;101977.81;;;3.17;73.73
3132;BME280;62090;52.330;9.104;2023-04-05T00:05:37;101957.00;;;3.08;73.60
3132;BME280;62090;52.330;9.104;2023-04-05T00:08:09;101971.31;;;3.31;73.99
3132;BME280;62090;52.330;9.104;2023-04-05T00:10:44;101952.47;;;3.37;73.55
3132;BME280;62090;52.330;9.104;2023-04-05T00:13:13;101936.69;;;3.40;73.25
3132;BME280;62090;52.330;9.104;2023-04-05T00:15:43;101970.00;;;3.71;72.87
3132;BME280;62090;52.330;9.104;2023-04-05T00:18:13;101937.22;;;3.71;71.89
3132;BME280;62090;52.330;9.104;2023-04-05T00:20:48;101943.47;;;3.88;71.34
3132;BME280;62090;52.330;9.104;2023-04-05T00:23:20;101963.88;;;3.91;70.99
3132;BME280;62090;52.330;9.104;2023-04-05T00:25:52;101962.31;;;3.81;71.13
3132;BME280;62090;52.330;9.104;2023-04-05T00:28:22;101974.28;;;3.72;70.80
3132;BME280;62090;52.330;9.104;2023-04-05T00:30:52;101923.75;;;3.35;70.35
3132;BME280;62090;52.330;9.104;2023-04-05T00:33:21;101979.63;;;3.65;71.65
3132;BME280;62090;52.330;9.104;2023-04-05T00:35:51;101975.28;;;3.74;71.52
3132;BME280;62090;52.330;9.104;2023-04-05T00:38:24;101969.78;;;3.79;71.25
3132;BME280;62090;52.330;9.104;2023-04-05T00:40:53;101973.72;;;3.76;71.94
3132;BME280;62090;52.330;9.104;2023-04-05T00:43:23;101966.94;;;3.75;71.70
3132;BME280;62090;52.330;9.104;2023-04-05T00:45:53;101965.19;;;3.74;71.46
3132;BME280;62090;52.330;9.104;2023-04-05T00:48:23;101957.28;;;3.58;72.26
3132;BME280;62090;52.330;9.104;2023-04-05T00:50:53;101966.59;;;3.70;71.85
3132;BME280;62090;52.330;9.104;2023-04-05T00:53:26;101947.66;;;3.64;71.43
3132;BME280;62090;52.330;9.104;2023-04-05T00:55:57;101952.59;;;3.62;71.87
3132;BME280;62090;52.330;9.104;2023-04-05T00:58:27;101895.41;;;3.26;71.71
3132;BME280;62090;52.330;9.104;2023-04-05T01:01:01;101934.28;;;3.42;72.95
3132;BME280;62090;52.330;9.104;2023-04-05T01:03:34;101941.84;;;3.53;73.01
3132;BME280;62090;52.330;9.104;2023-04-05T01:06:15;101924.41;;;3.45;72.42
3132;BME280;62090;52.330;9.104;2023-04-05T01:08:57;101952.00;;;3.55;72.60
3132;BME280;62090;52.330;9.104;2023-04-05T01:11:29;101942.81;;;3.55;72.37
3132;BME280;62090;52.330;9.104;2023-04-05T01:14:01;101940.72;;;3.50;71.94
3132;BME280;62090;52.330;9.104;2023-04-05T01:16:31;101919.28;;;3.43;71.10
3132;BME280;62090;52.330;9.104;2023-04-05T01:19:00;101939.22;;;3.52;71.09
3132;BME280;62090;52.330;9.104;2023-04-05T01:22:01;101929.56;;;3.34;71.36
3132;BME280;62090;52.330;9.104;2023-04-05T01:24:53;101925.94;;;3.31;72.10
3132;BME280;62090;52.330;9.104;2023-04-05T01:27:50;101930.53;;;3.25;72.12
3132;BME280;62090;52.330;9.104;2023-04-05T01:30:31;101941.28;;;3.34;72.67
3132;BME280;62090;52.330;9.104;2023-04-05T01:33:09;101878.59;;;2.92;72.53
3132;BME280;62090;52.330;9.104;2023-04-05T01:35:46;101901.50;;;2.95;73.36
3132;BME280;62090;52.330;9.104;2023-04-05T01:38:22;101937.00;;;3.10;73.73
3132;BME280;62090;52.330;9.104;2023-04-05T01:40:54;101947.81;;;3.09;74.36
3132;BME280;62090;52.330;9.104;2023-04-05T01:43:27;101863.91;;;2.63;74.41
3132;BME280;62090;52.330;9.104;2023-04-05T01:46:01;101954.16;;;3.04;74.77
3132;BME280;62090;52.330;9.104;2023-04-05T01:48:32;101905.03;;;2.75;74.16
3132;BME280;62090;52.330;9.104;2023-04-05T01:51:04;101862.22;;;2.52;75.77
3132;BME280;62090;52.330;9.104;2023-04-05T01:53:38;101897.63;;;2.77;76.08
3132;BME280;62090;52.330;9.104;2023-04-05T01:56:13;101879.63;;;2.61;75.89
3132;BME280;62090;52.330;9.104;2023-04-05T01:58:44;101892.66;;;2.67;75.89
3132;BME280;62090;52.330;9.104;2023-04-05T02:01:21;101883.59;;;2.69;75.27
3132;BME280;62090;52.330;9.104;2023-04-05T02:03:53;101855.97;;;2.47;75.30
3132;BME280;62090;52.330;9.104;2023-04-05T02:06:27;101849.41;;;2.37;76.25
3132;BME280;62090;52.330;9.104;2023-04-05T02:09:01;101938.69;;;2.87;75.80
3132;BME280;62090;52.330;9.104;2023-04-05T02:11:34;101877.53;;;2.55;75.61
3132;BME280;62090;52.330;9.104;2023-04-05T02:14:06;101919.06;;;2.72;75.25
3132;BME280;62090;52.330;9.104;2023-04-05T02:16:41;101941.09;;;2.86;75.29
3132;BME280;62090;52.330;9.104;2023-04-05T02:19:13;101887.13;;;2.49;75.84
3132;BME280;62090;52.330;9.104;2023-04-05T02:21:50;101907.56;;;2.75;75.90
3132;BME280;62090;52.330;9.104;2023-04-05T02:24:23;101935.16;;;2.74;76.82
3132;BME280;62090;52.330;9.104;2023-04-05T02:26:56;101919.28;;;2.75;76.28
3132;BME280;62090;52.330;9.104;2023-04-05T02:29:29;101935.84;;;2.83;75.79
3132;BME280;62090;52.330;9.104;2023-04-05T02:32:07;101935.72;;;2.81;75.64
3132;BME280;62090;52.330;9.104;2023-04-05T02:34:40;101944.47;;;2.75;76.24
3132;BME280;62090;52.330;9.104;2023-04-05T02:37:13;101868.63;;;2.37;76.66
3132;BME280;62090;52.330;9.104;2023-04-05T02:39:47;101847.28;;;2.32;76.57
3132;BME280;62090;52.330;9.104;2023-04-05T04:04:31;101533.19;;;-0.41;78.44
3132;BME280;62090;52.330;9.104;2023-04-05T05:09:43;101713.34;;;0.80;76.25
3132;BME280;62090;52.330;9.104;2023-04-05T05:13:07;101720.03;;;1.02;75.47
3132;BME280;62090;52.330;9.104;2023-04-05T05:19:12;101685.06;;;0.61;76.35
3132;BME280;62090;52.330;9.104;2023-04-05T05:22:31;101680.75;;;0.70;76.33
3132;BME280;62090;52.330;9.104;2023-04-05T05:25:57;101696.06;;;1.05;75.65
3132;BME280;62090;52.330;9.104;2023-04-05T05:29:06;101673.91;;;1.21;74.92
3132;BME280;62090;52.330;9.104;2023-04-05T05:32:15;101899.09;;;2.51;73.86
3132;BME280;62090;52.330;9.104;2023-04-05T05:35:07;101710.84;;;1.34;74.11
3132;BME280;62090;52.330;9.104;2023-04-05T05:37:43;101892.22;;;2.61;74.59
3132;BME280;62090;52.330;9.104;2023-04-05T05:40:13;101888.66;;;2.80;73.92
3132;BME280;62090;52.330;9.104;2023-04-05T05:42:45;101881.13;;;2.92;72.99
3132;BME280;62090;52.330;9.104;2023-04-05T05:45:15;101867.47;;;3.00;73.08
3132;BME280;62090;52.330;9.104;2023-04-05T05:47:45;101881.94;;;3.37;72.07
3132;BME280;62090;52.330;9.104;2023-04-05T05:50:15;101881.69;;;3.58;71.31
3132;BME280;62090;52.330;9.104;2023-04-05T05:52:46;101876.66;;;3.58;71.21
3132;BME280;62090;52.330;9.104;2023-04-05T05:55:16;101827.47;;;3.39;70.99
3132;BME280;62090;52.330;9.104;2023-04-05T05:57:49;101871.56;;;3.81;70.63
3132;BME280;62090;52.330;9.104;2023-04-05T06:00:19;101877.59;;;3.83;70.86
3132;BME280;62090;52.330;9.104;2023-04-05T06:02:50;101891.28;;;3.87;71.22
3132;BME280;62090;52.330;9.104;2023-04-05T06:05:22;101833.13;;;3.72;70.49
3132;BME280;62090;52.330;9.104;2023-04-05T06:07:55;101880.09;;;3.95;72.22
3132;BME280;62090;52.330;9.104;2023-04-05T06:10:25;101876.50;;;3.91;70.79
3132;BME280;62090;52.330;9.104;2023-04-05T06:12:58;101891.94;;;3.84;71.32
3132;BME280;62090;52.330;9.104;2023-04-05T06:15:28;101827.91;;;3.34;71.38
3132;BME280;62090;52.330;9.104;2023-04-05T06:17:58;101890.00;;;3.68;71.31
3132;BME280;62090;52.330;9.104;2023-04-05T06:20:28;101879.72;;;3.54;71.77
3132;BME280;62090;52.330;9.104;2023-04-05T06:22:58;101815.13;;;3.19;70.49
3132;BME280;62090;52.330;9.104;2023-04-05T06:25:29;101812.53;;;3.06;72.27
3132;BME280;62090;52.330;9.104;2023-04-05T06:28:01;101884.97;;;3.45;72.89
3132;BME280;62090;52.330;9.104;2023-04-05T06:30:32;101844.03;;;3.13;72.45
3132;BME280;62090;52.330;9.104;2023-04-05T06:33:02;101821.16;;;2.98;74.53
3132;BME280;62090;52.330;9.104;2023-04-05T06:35:33;101820.94;;;2.95;74.48
3132;BME280;62090;52.330;9.104;2023-04-05T06:38:03;101892.34;;;3.42;74.61
3132;BME280;62090;52.330;9.104;2023-04-05T06:40:33;101861.34;;;3.31;74.83
3132;BME280;62090;52.330;9.104;2023-04-05T06:43:05;101868.53;;;3.50;74.65
3132;BME280;62090;52.330;9.104;2023-04-05T06:45:36;101886.75;;;3.58;74.29
3132;BME280;62090;52.330;9.104;2023-04-05T06:48:06;101893.59;;;3.72;74.12
3132;BME280;62090;52.330;9.104;2023-04-05T06:50:36;101890.19;;;3.83;74.14
3132;BME280;62090;52.330;9.104;2023-04-05T06:53:07;101886.56;;;3.91;73.96
3132;BME280;62090;52.330;9.104;2023-04-05T06:55:37;101868.97;;;3.68;74.15
3132;BME280;62090;52.330;9.104;2023-04-05T06:58:10;101859.75;;;3.80;74.22
3132;BME280;62090;52.330;9.104;2023-04-05T07:00:40;101823.72;;;3.58;74.46
3132;BME280;62090;52.330;9.104;2023-04-05T07:03:10;101868.00;;;4.02;74.96
3132;BME280;62090;52.330;9.104;2023-04-05T07:05:40;101828.16;;;3.85;74.47
3132;BME280;62090;52.330;9.104;2023-04-05T07:08:10;101834.69;;;3.95;73.65
3132;BME280;62090;52.330;9.104;2023-04-05T07:10:39;101857.41;;;4.19;73.46
3132;BME280;62090;52.330;9.104;2023-04-05T07:13:12;101860.75;;;4.32;73.09
3132;BME280;62090;52.330;9.104;2023-04-05T07:15:42;101856.44;;;4.42;72.94
3132;BME280;62090;52.330;9.104;2023-04-05T07:18:13;101805.00;;;4.15;73.35
3132;BME280;62090;52.330;9.104;2023-04-05T07:20:46;101861.72;;;4.58;73.16
3132;BME280;62090;52.330;9.104;2023-04-05T07:23:16;101859.25;;;4.47;73.98
3132;BME280;62090;52.330;9.104;2023-04-05T07:25:48;101842.41;;;4.59;73.68
3132;BME280;62090;52.330;9.104;2023-04-05T07:28:21;101846.81;;;4.75;73.66
3132;BME280;62090;52.330;9.104;2023-04-05T07:30:50;101837.78;;;4.78;73.48
3132;BME280;62090;52.330;9.104;2023-04-05T07:33:20;101851.97;;;4.89;73.75
3132;BME280;62090;52.330;9.104;2023-04-05T07:35:51;101862.75;;;5.13;74.06
3132;BME280;62090;52.330;9.104;2023-04-05T07:38:23;101829.63;;;5.08;74.06
3132;BME280;62090;52.330;9.104;2023-04-05T07:40:52;101830.25;;;5.18;72.75
3132;BME280;62090;52.330;9.104;2023-04-05T07:43:25;101856.16;;;5.41;72.72
3132;BME280;62090;52.330;9.104;2023-04-05T07:46:00;101825.16;;;5.31;72.15
3132;BME280;62090;52.330;9.104;2023-04-05T07:48:30;101858.38;;;5.63;69.29
3132;BME280;62090;52.330;9.104;2023-04-05T07:51:04;101855.47;;;5.70;69.01
3132;BME280;62090;52.330;9.104;2023-04-05T07:53:35;101860.00;;;5.89;66.38
3132;BME280;62090;52.330;9.104;2023-04-05T07:56:06;101800.72;;;5.58;65.56
3132;BME280;62090;52.330;9.104;2023-04-05T07:58:39;101842.56;;;5.93;64.10
3132;BME280;62090;52.330;9.104;2023-04-05T08:01:09;101854.75;;;6.14;64.07
3132;BME280;62090;52.330;9.104;2023-04-05T08:03:39;101850.94;;;6.20;63.02
3132;BME280;62090;52.330;9.104;2023-04-05T08:06:11;101851.50;;;6.29;61.62
3132;BME280;62090;52.330;9.104;2023-04-05T08:08:45;101840.94;;;6.36;59.62
3132;BME280;62090;52.330;9.104;2023-04-05T08:11:15;101854.22;;;6.47;61.88
3132;BME280;62090;52.330;9.104;2023-04-05T08:13:50;101846.84;;;6.65;59.24
3132;BME280;62090;52.330;9.104;2023-04-05T08:16:20;101840.91;;;6.64;58.81
3132;BME280;62090;52.330;9.104;2023-04-05T08:18:50;101858.53;;;6.77;57.41
3132;BME280;62090;52.330;9.104;2023-04-05T08:21:21;101845.88;;;6.77;57.78
3132;BME280;62090;52.330;9.104;2023-04-05T08:23:52;101814.00;;;6.66;55.46
3132;BME280;62090;52.330;9.104;2023-04-05T08:26:22;101851.19;;;6.82;55.79
3132;BME280;62090;52.330;9.104;2023-04-05T08:28:55;101843.69;;;6.84;55.24
3132;BME280;62090;52.330;9.104;2023-04-05T08:31:24;101841.84;;;6.96;55.38
3132;BME280;62090;52.330;9.104;2023-04-05T08:33:55;101849.63;;;6.99;55.22
3132;BME280;62090;52.330;9.104;2023-04-05T08:36:24;101844.66;;;7.00;55.21
3132;BME280;62090;52.330;9.104;2023-04-05T08:38:54;101821.88;;;6.86;55.48
3132;BME280;62090;52.330;9.104;2023-04-05T08:41:30;101832.84;;;7.01;55.54
3132;BME280;62090;52.330;9.104;2023-04-05T08:44:08;101844.47;;;7.12;55.41
3132;BME280;62090;52.330;9.104;2023-04-05T08:46:42;101810.66;;;6.97;55.20
3132;BME280;62090;52.330;9.104;2023-04-05T08:49:12;101841.66;;;7.22;55.60
3132;BME280;62090;52.330;9.104;2023-04-05T08:51:42;101705.56;;;6.59;54.87
3132;BME280;62090;52.330;9.104;2023-04-05T08:54:12;101822.94;;;7.20;53.16
3132;BME280;62090;52.330;9.104;2023-04-05T08:56:42;101848.53;;;7.39;52.72
3132;BME280;62090;52.330;9.104;2023-04-05T08:59:19;101825.19;;;7.30;52.08
3132;BME280;62090;52.330;9.104;2023-04-05T09:01:50;101826.94;;;7.31;53.28
3132;BME280;62090;52.330;9.104;2023-04-05T09:04:21;101819.28;;;7.46;52.52
3132;BME280;62090;52.330;9.104;2023-04-05T09:06:54;101833.44;;;7.73;51.40
3132;BME280;62090;52.330;9.104;2023-04-05T09:09:29;101820.72;;;7.72;50.34
3132;BME280;62090;52.330;9.104;2023-04-05T09:12:02;101811.97;;;7.83;50.29
3132;BME280;62090;52.330;9.104;2023-04-05T09:14:35;101828.31;;;8.04;49.70
3132;BME280;62090;52.330;9.104;2023-04-05T09:17:06;101836.09;;;8.07;48.58
3132;BME280;62090;52.330;9.104;2023-04-05T09:19:36;101825.72;;;8.19;49.42
3132;BME280;62090;52.330;9.104;2023-04-05T09:22:07;101816.91;;;8.28;47.69
3132;BME280;62090;52.330;9.104;2023-04-05T09:24:41;101824.28;;;8.40;47.73
3132;BME280;62090;52.330;9.104;2023-04-05T09:27:13;101821.97;;;8.44;47.73
3132;BME280;62090;52.330;9.104;2023-04-05T09:29:50;101821.78;;;8.58;48.26
3132;BME280;62090;52.330;9.104;2023-04-05T09:32:24;101809.59;;;8.68;47.51
3132;BME280;62090;52.330;9.104;2023-04-05T09:34:57;101809.47;;;8.83;47.40
3132;BME280;62090;52.330;9.104;2023-04-05T09:37:31;101790.41;;;8.91;46.61
3132;BME280;62090;52.330;9.104;2023-04-05T09:40:03;101804.91;;;9.11;46.39
3132;BME280;62090;52.330;9.104;2023-04-05T09:42:42;101785.53;;;9.13;45.73
3132;BME280;62090;52.330;9.104;2023-04-05T09:45:16;101770.78;;;9.06;45.93
3132;BME280;62090;52.330;9.104;2023-04-05T09:47:55;101730.41;;;8.77;46.66
3132;BME280;62090;52.330;9.104;2023-04-05T09:50:26;101799.63;;;9.24;46.19
3132;BME280;62090;52.330;9.104;2023-04-05T09:53:05;101807.91;;;9.57;45.99
3132;BME280;62090;52.330;9.104;2023-04-05T09:55:36;101792.63;;;9.57;46.32
3132;BME280;62090;52.330;9.104;2023-04-05T09:58:11;101811.38;;;9.77;46.11
3132;BME280;62090;52.330;9.104;2023-04-05T10:00:50;101778.13;;;9.74;46.40
3132;BME280;62090;52.330;9.104;2023-04-05T10:03:45;101800.22;;;9.94;46.28
3132;BME280;62090;52.330;9.104;2023-04-05T10:06:16;101813.22;;;10.00;45.62
3132;BME280;62090;52.330;9.104;2023-04-05T10:08:46;101789.25;;;9.95;45.11
3132;BME280;62090;52.330;9.104;2023-04-05T10:11:17;101799.69;;;10.01;44.42
3132;BME280;62090;52.330;9.104;2023-04-05T10:13:48;101785.72;;;9.72;44.18
3132;BME280;62090;52.330;9.104;2023-04-05T10:16:22;101777.19;;;9.72;44.27
3132;BME280;62090;52.330;9.104;2023-04-05T10:18:55;101790.44;;;9.84;44.89
3132;BME280;62090;52.330;9.104;2023-04-05T10:21:28;101788.56;;;9.99;44.05
3132;BME280;62090;52.330;9.104;2023-04-05T10:24:04;101787.25;;;10.07;45.33
3132;BME280;62090;52.330;9.104;2023-04-05T10:26:39;101782.56;;;10.16;45.83
3132;BME280;62090;52.330;9.104;2023-04-05T10:29:18;101775.56;;;10.32;44.55
3132;BME280;62090;52.330;9.104;2023-04-05T10:32:04;101766.81;;;10.25;45.14
3132;BME280;62090;52.330;9.104;2023-04-05T10:34:41;101771.31;;;10.31;45.05
3132;BME280;62090;52.330;9.104;2023-04-05T10:37:17;101757.44;;;10.24;45.23
3132;BME280;62090;52.330;9.104;2023-04-05T10:39:52;101747.06;;;10.20;44.81
3132;BME280;62090;52.330;9.104;2023-04-05T10:42:26;101758.44;;;10.08;45.83
3132;BME280;62090;52.330;9.104;2023-04-05T10:44:58;101754.81;;;10.03;45.76
3132;BME280;62090;52.330;9.104;2023-04-05T10:47:37;101770.97;;;10.04;44.58
3132;BME280;62090;52.330;9.104;2023-04-05T10:50:16;101739.03;;;9.72;45.04
3132;BME280;62090;52.330;9.104;2023-04-05T10:52:49;101771.91;;;9.87;44.77
3132;BME280;62090;52.330;9.104;2023-04-05T10:55:19;101771.03;;;9.86;44.40
3132;BME280;62090;52.330;9.104;2023-04-05T10:57:50;101765.94;;;9.86;43.88
3132;BME280;62090;52.330;9.104;2023-04-05T11:00:21;101747.66;;;9.75;44.82
3132;BME280;62090;52.330;9.104;2023-04-05T11:02:55;101771.31;;;9.92;44.57
3132;BME280;62090;52.330;9.104;2023-04-05T11:05:30;101770.34;;;9.90;44.66
3132;BME280;62090;52.330;9.104;2023-04-05T11:08:04;101728.22;;;9.58;45.09
3132;BME280;62090;52.330;9.104;2023-04-05T11:10:36;101755.69;;;9.65;44.83
3132;BME280;62090;52.330;9.104;2023-04-05T11:13:08;101760.31;;;9.74;45.39
3132;BME280;62090;52.330;9.104;2023-04-05T11:15:38;101765.41;;;9.74;45.27
3132;BME280;62090;52.330;9.104;2023-04-05T11:18:19;101746.38;;;9.66;45.10
3132;BME280;62090;52.330;9.104;2023-04-05T11:20:51;101726.72;;;9.62;45.44
3132;BME280;62090;52.330;9.104;2023-04-05T11:23:23;101741.91;;;9.60;44.96
3132;BME280;62090;52.330;9.104;2023-04-05T11:25:55;101726.84;;;9.46;45.04
3132;BME280;62090;52.330;9.104;2023-04-05T11:28:33;101737.25;;;9.52;46.42
3132;BME280;62090;52.330;9.104;2023-04-05T11:31:11;101747.03;;;9.43;45.76
3132;BME280;62090;52.330;9.104;2023-04-05T11:33:56;101725.09;;;9.45;44.67
3132;BME280;62090;52.330;9.104;2023-04-05T11:36:37;101713.97;;;9.43;45.47
3132;BME280;62090;52.330;9.104;2023-04-05T11:39:26;101725.63;;;9.57;44.72
3132;BME280;62090;52.330;9.104;2023-04-05T11:42:01;101724.34;;;9.66;45.13
3132;BME280;62090;52.330;9.104;2023-04-05T11:44:43;101725.69;;;9.78;45.56
3132;BME280;62090;52.330;9.104;2023-04-05T11:47:16;101719.25;;;9.86;45.51
3132;BME280;62090;52.330;9.104;2023-04-05T11:49:50;101727.69;;;9.85;44.34
3132;BME280;62090;52.330;9.104;2023-04-05T11:52:20;101685.31;;;9.66;44.48
3132;BME280;62090;52.330;9.104;2023-04-05T11:54:51;101714.41;;;9.92;44.63
3132;BME280;62090;52.330;9.104;2023-04-05T11:57:22;101702.56;;;9.92;44.14
3132;BME280;62090;52.330;9.104;2023-04-05T11:59:52;101701.59;;;10.09;44.40
3132;BME280;62090;52.330;9.104;2023-04-05T12:02:22;101713.31;;;10.25;44.77
3132;BME280;62090;52.330;9.104;2023-04-05T12:04:56;101696.22;;;10.23;43.72
3132;BME280;62090;52.330;9.104;2023-04-05T12:07:28;101681.41;;;10.14;44.23
3132;BME280;62090;52.330;9.104;2023-04-05T12:10:05;101700.59;;;10.25;44.00
3132;BME280;62090;52.330;9.104;2023-04-05T12:12:39;101665.09;;;9.90;44.59
3132;BME280;62090;52.330;9.104;2023-04-05T12:15:14;101568.84;;;9.01;44.53
3132;BME280;62090;52.330;9.104;2023-04-05T12:17:46;101687.72;;;9.82;44.67
3132;BME280;62090;52.330;9.104;2023-04-05T12:20:22;101683.97;;;9.95;43.83
3132;BME280;62090;52.330;9.104;2023-04-05T12:22:54;101688.09;;;10.12;44.64
3132;BME280;62090;52.330;9.104;2023-04-05T12:25:25;101646.63;;;9.94;43.58
3132;BME280;62090;52.330;9.104;2023-04-05T12:27:55;101674.13;;;10.02;43.03
3132;BME280;62090;52.330;9.104;2023-04-05T12:30:26;101676.88;;;10.07;43.55
3132;BME280;62090;52.330;9.104;2023-04-05T12:33:06;101681.56;;;10.17;43.98
3132;BME280;62090;52.330;9.104;2023-04-05T12:35:40;101649.31;;;10.18;43.92
3132;BME280;62090;52.330;9.104;2023-04-05T12:38:13;101649.72;;;10.07;43.66
3132;BME280;62090;52.330;9.104;2023-04-05T12:40:43;101674.09;;;10.22;44.17
3132;BME280;62090;52.330;9.104;2023-04-05T12:43:13;101651.97;;;10.21;43.82
3132;BME280;62090;52.330;9.104;2023-04-05T12:45:48;101650.63;;;10.29;44.64
3132;BME280;62090;52.330;9.104;2023-04-05T12:48:22;101633.31;;;10.42;43.81
3132;BME280;62090;52.330;9.104;2023-04-05T12:50:55;101623.84;;;10.61;43.21
3132;BME280;62090;52.330;9.104;2023-04-05T12:53:25;101657.28;;;10.90;42.03
3132;BME280;62090;52.330;9.104;2023-04-05T12:55:56;101638.72;;;10.94;42.44
3132;BME280;62090;52.330;9.104;2023-04-05T12:58:33;101608.16;;;10.72;41.81
3132;BME280;62090;52.330;9.104;2023-04-05T13:01:04;101621.00;;;10.53;41.95
3132;BME280;62090;52.330;9.104;2023-04-05T13:03:33;101613.31;;;10.51;41.90
3132;BME280;62090;52.330;9.104;2023-04-05T13:06:06;101594.38;;;10.67;42.99
3132;BME280;62090;52.330;9.104;2023-04-05T13:08:36;101621.09;;;11.00;42.81
3132;BME280;62090;52.330;9.104;2023-04-05T13:11:06;101618.78;;;11.07;42.26
3132;BME280;62090;52.330;9.104;2023-04-05T13:13:36;101619.66;;;11.07;42.37
3132;BME280;62090;52.330;9.104;2023-04-05T13:16:06;101613.44;;;11.00;42.84
3132;BME280;62090;52.330;9.104;2023-04-05T13:18:36;101608.66;;;10.86;43.08
3132;BME280;62090;52.330;9.104;2023-04-05T13:21:09;101604.88;;;10.98;42.54
3132;BME280;62090;52.330;9.104;2023-04-05T13:23:40;101604.75;;;10.95;43.75
3132;BME280;62090;52.330;9.104;2023-04-05T13:26:26;101616.16;;;11.53;43.45
3132;BME280;62090;52.330;9.104;2023-04-05T13:29:00;101617.81;;;11.51;41.86
3132;BME280;62090;52.330;9.104;2023-04-05T13:31:36;101419.19;;;10.39;42.26
3132;BME280;62090;52.330;9.104;2023-04-05T13:34:18;101628.06;;;11.52;41.70
3132;BME280;62090;52.330;9.104;2023-04-05T13:36:55;101307.03;;;9.68;42.15
3132;BME280;62090;52.330;9.104;2023-04-05T13:39:37;101535.38;;;10.80;42.25
3132;BME280;62090;52.330;9.104;2023-04-05T13:42:18;101389.41;;;9.92;42.50
3132;BME280;62090;52.330;9.104;2023-04-05T13:44:51;101610.59;;;11.15;42.52
3132;BME280;62090;52.330;9.104;2023-04-05T13:47:29;101492.53;;;10.48;42.97
3132;BME280;62090;52.330;9.104;2023-04-05T13:50:22;101416.63;;;9.93;43.69
3132;BME280;62090;52.330;9.104;2023-04-05T13:53:02;101613.56;;;11.04;41.62
3132;BME280;62090;52.330;9.104;2023-04-05T13:56:28;101350.84;;;9.59;42.57
3132;BME280;62090;52.330;9.104;2023-04-05T14:11:06;101457.44;;;9.96;42.10
3132;BME280;62090;52.330;9.104;2023-04-05T14:13:36;101565.84;;;10.77;41.74
3132;BME280;62090;52.330;9.104;2023-04-05T14:16:06;101572.38;;;10.93;41.16
3132;BME280;62090;52.330;9.104;2023-04-05T14:18:36;101545.88;;;10.89;41.96
3132;BME280;62090;52.330;9.104;2023-04-05T14:21:06;101573.38;;;11.20;41.21
3132;BME280;62090;52.330;9.104;2023-04-05T14:23:37;101543.50;;;11.18;41.58
3132;BME280;62090;52.330;9.104;2023-04-05T14:26:10;101496.50;;;11.11;41.56
3132;BME280;62090;52.330;9.104;2023-04-05T14:28:41;101544.53;;;11.48;41.85
3132;BME280;62090;52.330;9.104;2023-04-05T14:31:13;101542.63;;;11.42;41.93
3132;BME280;62090;52.330;9.104;2023-04-05T14:33:45;101560.84;;;11.52;41.38
3132;BME280;62090;52.330;9.104;2023-04-05T14:36:16;101477.59;;;11.05;41.62
3132;BME280;62090;52.330;9.104;2023-04-05T14:38:47;101548.31;;;11.34;41.36
3132;BME280;62090;52.330;9.104;2023-04-05T14:41:20;101469.16;;;11.07;41.28
3132;BME280;62090;52.330;9.104;2023-04-05T14:43:51;101554.75;;;11.48;41.92
3132;BME280;62090;52.330;9.104;2023-04-05T14:46:24;101476.56;;;10.99;41.66
3132;BME280;62090;52.330;9.104;2023-04-05T14:48:54;101533.16;;;11.38;40.91
3132;BME280;62090;52.330;9.104;2023-04-05T14:51:25;101536.66;;;11.42;41.16
3132;BME280;62090;52.330;9.104;2023-04-05T14:53:55;101528.25;;;11.44;41.29
3132;BME280;62090;52.330;9.104;2023-04-05T14:56:28;101543.63;;;11.71;41.97
3132;BME280;62090;52.330;9.104;2023-04-05T14:58:57;101526.19;;;11.83;41.63
3132;BME280;62090;52.330;9.104;2023-04-05T15:01:28;101496.38;;;11.59;41.52
3132;BME280;62090;52.330;9.104;2023-04-05T15:03:58;101517.50;;;11.78;41.06
3132;BME280;62090;52.330;9.104;2023-04-05T15:06:28;101534.00;;;11.88;41.46
3132;BME280;62090;52.330;9.104;2023-04-05T15:08:58;101530.63;;;11.91;41.23
3132;BME280;62090;52.330;9.104;2023-04-05T15:11:30;101534.22;;;11.96;41.38
3132;BME280;62090;52.330;9.104;2023-04-05T15:14:01;101512.97;;;11.71;41.31
3132;BME280;62090;52.330;9.104;2023-04-05T15:16:31;101525.16;;;11.78;41.26
3132;BME280;62090;52.330;9.104;2023-04-05T15:19:01;101522.94;;;11.64;41.06
3132;BME280;62090;52.330;9.104;2023-04-05T15:21:31;101530.75;;;11.43;40.93
3132;BME280;62090;52.330;9.104;2023-04-05T15:24:01;101529.72;;;11.36;41.16
3132;BME280;62090;52.330;9.104;2023-04-05T15:26:33;101522.28;;;11.44;41.15
3132;BME280;62090;52.330;9.104;2023-04-05T15:29:03;101505.00;;;11.35;41.16
3132;BME280;62090;52.330;9.104;2023-04-05T15:31:33;101518.19;;;11.49;40.63
3132;BME280;62090;52.330;9.104;2023-04-05T15:34:02;101524.69;;;11.39;41.41
3132;BME280;62090;52.330;9.104;2023-04-05T15:36:34;101468.44;;;11.11;41.63
3132;BME280;62090;52.330;9.104;2023-04-05T15:39:04;101470.47;;;10.96;41.52
3132;BME280;62090;52.330;9.104;2023-04-05T15:41:37;101512.00;;;11.17;41.90
3132;BME280;62090;52.330;9.104;2023-04-05T15:44:06;101507.19;;;11.25;41.55
3132;BME280;62090;52.330;9.104;2023-04-05T15:46:36;101512.06;;;11.44;41.07
3132;BME280;62090;52.330;9.104;2023-04-05T15:49:07;101497.94;;;11.54;40.70
3132;BME280;62090;52.330;9.104;2023-04-05T15:51:41;101511.88;;;11.89;41.55
3132;BME280;62090;52.330;9.104;2023-04-05T15:54:10;101504.56;;;12.01;40.83
3132;BME280;62090;52.330;9.104;2023-04-05T15:56:47;101507.38;;;11.56;41.44
3132;BME280;62090;52.330;9.104;2023-04-05T15:59:17;101481.97;;;11.09;42.97
3132;BME280;62090;52.330;9.104;2023-04-05T16:01:47;101483.88;;;10.90;44.78
3132;BME280;62090;52.330;9.104;2023-04-05T16:04:17;101502.22;;;11.29;42.19
3132;BME280;62090;52.330;9.104;2023-04-05T16:06:47;101464.63;;;10.75;43.44
3132;BME280;62090;52.330;9.104;2023-04-05T16:09:16;101509.41;;;11.16;43.83
3132;BME280;62090;52.330;9.104;2023-04-05T16:11:49;101494.84;;;11.64;42.45
3132;BME280;62090;52.330;9.104;2023-04-05T16:14:18;101491.44;;;12.17;42.03
3132;BME280;62090;52.330;9.104;2023-04-05T16:16:48;101507.13;;;12.57;41.12
3132;BME280;62090;52.330;9.104;2023-04-05T16:19:20;101486.38;;;12.47;40.68
3132;BME280;62090;52.330;9.104;2023-04-05T16:21:50;101488.06;;;11.90;39.94